Terminal Aerodrome Forecast
Issued by NWS

Home | Current Version | Previous Version | Graphics & Text | Print | Product List | Glossary On
Versions: 1 2 3 4 5 6 7 8 9 10 11 12 13 14 15 16
000
FTUS43 KOAX 131100
TAFCDR
TAF
KCDR 131126Z 1312/1412 03018G26KT 1/2SM SN OVC005
     FM131400 03017G26KT 1SM -SN OVC010
     FM140000 35014KT P6SM BKN040=

USA.gov is the U.S. government's official web portal to all federal, state and local government web resources and services.